createdAt,value
2023-05-20T00:00:56.064Z,14.65
2023-05-20T00:03:29.925Z,14.64
2023-05-20T00:06:02.854Z,14.62
2023-05-20T00:08:35.488Z,14.61
2023-05-20T00:11:09.611Z,14.59
2023-05-20T00:13:42.301Z,14.57
2023-05-20T00:16:15.417Z,14.56
2023-05-20T00:18:48.156Z,14.56
2023-05-20T00:21:20.874Z,14.56
2023-05-20T00:23:56.738Z,14.55
2023-05-20T00:26:31.531Z,14.52
2023-05-20T00:29:04.706Z,14.49
2023-05-20T00:31:37.509Z,14.46
2023-05-20T00:34:10.353Z,14.45
2023-05-20T00:36:43.561Z,14.45
2023-05-20T00:39:16.854Z,14.46
2023-05-20T00:41:51.828Z,14.47
2023-05-20T00:44:26.770Z,14.49
2023-05-20T00:47:02.547Z,14.50
2023-05-20T00:49:35.530Z,14.49
2023-05-20T00:52:09.177Z,14.50
2023-05-20T00:54:42.217Z,14.49
2023-05-20T00:57:16.501Z,14.51
2023-05-20T00:59:49.581Z,14.50
2023-05-20T01:02:22.824Z,14.52
2023-05-20T01:04:56.970Z,14.51
2023-05-20T01:07:29.775Z,14.52
2023-05-20T01:10:03.932Z,14.52
2023-05-20T01:12:40.420Z,14.54
2023-05-20T01:15:13.889Z,14.55
2023-05-20T01:17:47.814Z,14.56
2023-05-20T01:20:21.112Z,14.56
2023-05-20T01:22:55.810Z,14.57
2023-05-20T01:25:29.057Z,14.57
2023-05-20T01:28:01.826Z,14.58
2023-05-20T01:30:39.696Z,14.57
2023-05-20T01:33:13.415Z,14.56
2023-05-20T01:35:46.340Z,14.57
2023-05-20T01:38:20.724Z,14.57
2023-05-20T01:40:54.705Z,14.56
2023-05-20T01:43:28.313Z,14.58
2023-05-20T01:46:03.357Z,14.56
2023-05-20T01:48:36.130Z,14.55
2023-05-20T01:51:08.846Z,14.53
2023-05-20T01:53:44.233Z,14.51
2023-05-20T01:56:17.164Z,14.51
2023-05-20T01:58:49.869Z,14.54
2023-05-20T02:01:22.749Z,14.54
2023-05-20T02:03:55.642Z,14.56
2023-05-20T02:06:29.139Z,14.56
2023-05-20T02:09:06.156Z,14.57
2023-05-20T02:11:38.916Z,14.56
2023-05-20T02:14:11.770Z,14.57
2023-05-20T02:16:44.909Z,14.57
2023-05-20T02:19:23.964Z,14.57
2023-05-20T02:21:56.933Z,14.56
2023-05-20T02:24:31.086Z,14.58
2023-05-20T02:27:04.748Z,14.59
2023-05-20T02:29:37.728Z,14.59
2023-05-20T02:32:11.314Z,14.60
2023-05-20T02:34:44.108Z,14.60
2023-05-20T02:37:16.976Z,14.60
2023-05-20T02:39:51.013Z,14.60
2023-05-20T02:42:23.703Z,14.61
2023-05-20T02:44:58.833Z,14.62
2023-05-20T02:47:31.521Z,14.62
2023-05-20T02:50:04.506Z,14.63
2023-05-20T02:52:37.304Z,14.64
2023-05-20T02:55:11.723Z,14.66
2023-05-20T02:57:44.487Z,14.69
2023-05-20T03:00:18.945Z,14.69
2023-05-20T03:02:51.704Z,14.71
2023-05-20T03:05:24.413Z,14.71
2023-05-20T03:07:57.156Z,14.71
2023-05-20T03:10:31.223Z,14.72
2023-05-20T03:13:08.625Z,14.71
2023-05-20T03:15:45.501Z,14.70
2023-05-20T03:18:18.342Z,14.71
2023-05-20T03:20:51.367Z,14.70
2023-05-20T03:23:24.165Z,14.71
2023-05-20T03:25:58.383Z,14.71
2023-05-20T03:28:31.080Z,14.73
2023-05-20T03:31:04.597Z,14.73
2023-05-20T03:33:38.258Z,14.75
2023-05-20T03:36:11.050Z,14.76
2023-05-20T03:38:43.845Z,14.79
2023-05-20T03:41:18.099Z,14.80
2023-05-20T03:43:50.910Z,14.83
2023-05-20T03:46:23.743Z,14.86
2023-05-20T03:48:56.482Z,14.89
2023-05-20T03:51:30.060Z,14.91
2023-05-20T03:54:08.910Z,14.92
2023-05-20T03:56:43.047Z,14.95
2023-05-20T03:59:16.071Z,14.98
2023-05-20T04:01:48.819Z,15.01
2023-05-20T04:04:21.619Z,15.03
2023-05-20T04:06:54.790Z,15.06
2023-05-20T04:09:27.511Z,15.10
2023-05-20T04:12:01.859Z,15.12
2023-05-20T04:14:35.563Z,15.17
2023-05-20T04:17:08.405Z,15.20
2023-05-20T04:19:41.318Z,15.24
2023-05-20T04:22:14.013Z,15.27
2023-05-20T04:24:46.914Z,15.31
2023-05-20T04:27:21.492Z,15.31
2023-05-20T04:29:55.061Z,15.35
2023-05-20T04:32:28.032Z,15.36
2023-05-20T04:35:02.073Z,15.40
2023-05-20T04:37:37.508Z,15.41
2023-05-20T04:40:12.653Z,15.42
2023-05-20T04:42:47.004Z,15.43
2023-05-20T04:45:20.808Z,15.43
2023-05-20T04:47:55.093Z,15.47
2023-05-20T04:50:28.577Z,15.50
2023-05-20T04:53:01.294Z,15.55
2023-05-20T04:55:34.217Z,15.57
2023-05-20T04:58:14.961Z,15.60
2023-05-20T05:00:48.000Z,15.66
2023-05-20T05:03:20.690Z,15.71
2023-05-20T05:05:56.687Z,15.72
2023-05-20T05:08:29.438Z,15.75
2023-05-20T05:11:02.286Z,15.75
2023-05-20T05:13:36.437Z,15.77
2023-05-20T05:16:09.386Z,15.82
2023-05-20T05:18:42.244Z,15.86
2023-05-20T05:21:15.077Z,15.89
2023-05-20T05:23:48.084Z,15.91
2023-05-20T05:26:21.020Z,15.95
2023-05-20T05:28:55.354Z,16.00
2023-05-20T05:31:28.525Z,16.07
2023-05-20T05:34:01.471Z,16.13
2023-05-20T05:36:34.944Z,16.21
2023-05-20T05:39:08.135Z,16.26
2023-05-20T05:41:42.319Z,16.34
2023-05-20T05:44:16.540Z,16.42
2023-05-20T05:46:49.363Z,16.49
2023-05-20T05:49:23.150Z,16.55
2023-05-20T05:51:55.941Z,16.59
2023-05-20T05:54:29.785Z,16.65
2023-05-20T05:57:03.626Z,16.72
2023-05-20T05:59:40.132Z,16.78
2023-05-20T06:02:14.614Z,16.85
2023-05-20T06:04:47.685Z,16.91
2023-05-20T06:07:20.678Z,16.98
2023-05-20T06:09:53.421Z,17.04
2023-05-20T06:12:26.169Z,17.13
2023-05-20T06:15:00.912Z,17.17
2023-05-20T06:17:33.722Z,17.22
2023-05-20T06:20:07.616Z,17.30
2023-05-20T06:22:41.096Z,17.38
2023-05-20T06:25:14.009Z,17.46
2023-05-20T06:27:47.573Z,17.49
2023-05-20T06:30:25.504Z,17.57
2023-05-20T06:32:58.329Z,17.69
2023-05-20T06:35:31.149Z,17.82
2023-05-20T06:38:06.194Z,17.93
2023-05-20T06:40:39.796Z,18.08
2023-05-20T06:43:12.510Z,18.27
2023-05-20T06:46:01.143Z,18.45
2023-05-20T06:48:38.607Z,18.62
2023-05-20T06:51:12.738Z,18.75
2023-05-20T06:53:46.016Z,18.92
2023-05-20T06:56:18.825Z,19.11
2023-05-20T06:58:51.522Z,19.32
2023-05-20T07:01:26.133Z,19.57
2023-05-20T07:03:58.934Z,19.73
2023-05-20T07:06:31.753Z,19.87
2023-05-20T07:09:05.452Z,20.03
2023-05-20T07:11:38.968Z,20.19
2023-05-20T07:14:11.923Z,20.33
2023-05-20T07:16:46.033Z,20.48
2023-05-20T07:19:18.875Z,20.62
2023-05-20T07:21:51.688Z,20.75
2023-05-20T07:24:39.642Z,20.88
2023-05-20T07:27:12.596Z,20.99
2023-05-20T07:29:45.402Z,21.01
2023-05-20T07:32:19.513Z,21.12
2023-05-20T07:34:52.288Z,21.31
2023-05-20T07:37:25.194Z,21.51
2023-05-20T07:39:57.910Z,21.78
2023-05-20T07:42:31.219Z,22.00
2023-05-20T07:45:07.288Z,22.19
2023-05-20T07:47:43.097Z,22.38
2023-05-20T07:50:15.903Z,22.57
2023-05-20T07:55:28.805Z,22.88
2023-05-20T07:58:02.883Z,23.06
2023-05-20T08:00:36.991Z,23.26
2023-05-20T08:03:14.594Z,23.50
2023-05-20T08:06:28.669Z,23.68
2023-05-20T08:09:02.768Z,23.84
2023-05-20T08:11:39.270Z,24.04
2023-05-20T08:14:12.002Z,24.27
2023-05-20T08:16:48.859Z,24.52
2023-05-20T08:19:23.330Z,24.76
2023-05-20T08:21:56.158Z,25.02
2023-05-20T08:24:28.850Z,25.35
2023-05-20T08:27:02.016Z,25.64
2023-05-20T08:29:34.903Z,25.97
2023-05-20T08:32:08.012Z,26.36
2023-05-20T08:34:43.136Z,26.77
2023-05-20T08:37:15.912Z,27.29
2023-05-20T08:39:50.003Z,27.89
2023-05-20T08:42:23.829Z,28.54
2023-05-20T08:44:59.309Z,29.47
2023-05-20T08:47:34.888Z,30.55
2023-05-20T08:50:09.951Z,31.64
2023-05-20T08:52:44.411Z,32.72
2023-05-20T08:55:23.003Z,33.64
2023-05-20T08:57:55.986Z,34.58
2023-05-20T09:00:29.025Z,35.31
2023-05-20T09:03:01.897Z,35.79
2023-05-20T09:05:36.919Z,36.04
2023-05-20T09:08:10.325Z,36.44
2023-05-20T09:10:43.311Z,36.78
2023-05-20T09:13:16.078Z,37.20
2023-05-20T09:15:48.836Z,37.52
2023-05-20T09:18:21.534Z,37.90
2023-05-20T09:20:55.726Z,38.33
2023-05-20T09:23:30.785Z,38.74
2023-05-20T09:26:03.583Z,39.18
2023-05-20T09:28:38.492Z,39.59
2023-05-20T09:31:11.221Z,40.09
2023-05-20T09:33:44.674Z,40.38
2023-05-20T09:36:20.452Z,40.62
2023-05-20T09:38:54.365Z,40.71
2023-05-20T09:41:32.197Z,40.60
2023-05-20T09:44:06.786Z,40.43
2023-05-20T09:46:39.958Z,40.47
2023-05-20T09:49:14.640Z,40.27
2023-05-20T09:51:49.112Z,40.12
2023-05-20T09:54:22.383Z,39.91
2023-05-20T09:56:55.812Z,39.73
2023-05-20T09:59:28.591Z,39.66
2023-05-20T10:02:01.400Z,39.73
2023-05-20T10:04:35.792Z,39.55
2023-05-20T10:07:37.858Z,39.20
2023-05-20T10:10:19.880Z,38.50
2023-05-20T10:12:56.903Z,37.71
2023-05-20T10:15:43.542Z,36.97
2023-05-20T10:18:26.404Z,36.17
2023-05-20T10:20:59.648Z,35.54
2023-05-20T10:23:33.696Z,35.19
2023-05-20T10:26:08.024Z,34.97
2023-05-20T10:28:42.192Z,34.56
2023-05-20T10:31:18.749Z,34.01
2023-05-20T10:33:53.843Z,33.39
2023-05-20T10:36:27.778Z,32.86
2023-05-20T10:39:02.403Z,32.41
2023-05-20T10:41:37.344Z,31.92
2023-05-20T10:44:10.310Z,31.54
2023-05-20T10:49:25.189Z,30.81
2023-05-20T10:52:00.968Z,30.72
2023-05-20T10:54:38.310Z,30.71
2023-05-20T10:57:11.472Z,30.74
2023-05-20T10:59:44.209Z,30.78
2023-05-20T11:02:17.298Z,30.78
2023-05-20T11:04:50.066Z,30.77
2023-05-20T11:07:26.619Z,30.82
2023-05-20T11:10:00.953Z,30.84
2023-05-20T11:12:33.814Z,30.84
2023-05-20T11:15:07.168Z,30.85
2023-05-20T11:17:40.143Z,30.83
2023-05-20T11:20:15.657Z,30.82
2023-05-20T11:22:48.504Z,30.69
2023-05-20T11:25:24.886Z,30.49
2023-05-20T11:27:57.747Z,30.28
2023-05-20T11:30:31.372Z,30.15
2023-05-20T11:33:04.930Z,29.99
2023-05-20T11:35:37.701Z,29.93
2023-05-20T11:38:10.488Z,29.88
2023-05-20T11:40:51.272Z,29.73
2023-05-20T11:43:25.112Z,29.65
2023-05-20T11:45:59.857Z,29.52
2023-05-20T11:48:32.739Z,29.36
2023-05-20T11:51:05.582Z,29.20
2023-05-20T11:53:41.779Z,29.19
2023-05-20T11:56:15.882Z,29.23
2023-05-20T11:58:48.634Z,29.24
2023-05-20T12:01:22.642Z,29.11
2023-05-20T12:03:59.234Z,28.96
2023-05-20T12:06:32.119Z,28.81
2023-05-20T12:09:07.120Z,28.67
2023-05-20T12:11:42.016Z,28.54
2023-05-20T12:14:15.073Z,28.39
2023-05-20T12:16:47.765Z,28.20
2023-05-20T12:19:20.575Z,27.78
2023-05-20T12:21:53.625Z,27.42
2023-05-20T12:24:26.545Z,27.19
2023-05-20T12:27:00.586Z,26.99
2023-05-20T12:29:33.302Z,26.85
2023-05-20T12:32:06.342Z,26.77
2023-05-20T12:34:39.264Z,26.70
2023-05-20T12:37:11.999Z,26.63
2023-05-20T12:39:44.888Z,26.69
2023-05-20T12:42:19.061Z,26.77
2023-05-20T12:44:51.947Z,26.87
2023-05-20T12:47:24.827Z,26.79
2023-05-20T12:49:57.544Z,26.74
2023-05-20T12:52:30.301Z,26.57
2023-05-20T12:55:03.689Z,26.55
2023-05-20T12:57:37.784Z,26.53
2023-05-20T13:00:11.568Z,26.54
2023-05-20T13:02:44.499Z,26.51
2023-05-20T13:05:17.388Z,26.57
2023-05-20T13:07:50.179Z,26.59
2023-05-20T13:10:23.484Z,26.60
2023-05-20T13:12:57.981Z,26.62
2023-05-20T13:15:33.152Z,26.61
2023-05-20T13:18:07.118Z,26.59
2023-05-20T13:20:40.562Z,26.54
2023-05-20T13:23:13.297Z,26.52
2023-05-20T13:25:46.228Z,26.46
2023-05-20T13:28:20.884Z,26.49
2023-05-20T13:30:53.642Z,26.53
2023-05-20T13:33:26.344Z,26.56
2023-05-20T13:35:59.044Z,26.64
2023-05-20T13:38:31.713Z,26.70
2023-05-20T13:41:04.465Z,26.62
2023-05-20T13:43:45.674Z,26.53
2023-05-20T13:46:18.579Z,26.47
2023-05-20T13:48:51.547Z,26.40
2023-05-20T13:51:26.112Z,26.37
2023-05-20T13:53:58.880Z,26.35
2023-05-20T13:56:31.589Z,26.39
2023-05-20T13:59:05.766Z,26.53
2023-05-20T14:01:41.238Z,26.62
2023-05-20T14:04:14.208Z,26.61
2023-05-20T14:06:47.440Z,26.55
2023-05-20T14:09:20.141Z,26.53
2023-05-20T14:11:52.926Z,26.52
2023-05-20T14:14:27.015Z,26.52
2023-05-20T14:16:59.846Z,26.47
2023-05-20T14:19:32.859Z,26.41
2023-05-20T14:22:05.804Z,26.32
2023-05-20T14:24:38.664Z,26.21
2023-05-20T14:27:12.403Z,26.14
2023-05-20T14:29:46.698Z,26.14
2023-05-20T14:32:19.430Z,26.14
2023-05-20T14:34:52.363Z,26.21
2023-05-20T14:37:25.037Z,26.28
2023-05-20T14:39:58.049Z,26.40
2023-05-20T14:42:30.940Z,26.53
2023-05-20T14:45:05.476Z,26.71
2023-05-20T14:47:40.144Z,26.88
2023-05-20T14:50:12.848Z,26.97
2023-05-20T14:52:45.526Z,27.00
2023-05-20T14:55:18.319Z,27.02
2023-05-20T14:57:51.137Z,27.01
2023-05-20T15:00:25.193Z,26.97
2023-05-20T15:02:58.124Z,26.90
2023-05-20T15:05:30.967Z,26.83
2023-05-20T15:08:03.728Z,26.79
2023-05-20T15:10:36.675Z,26.72
2023-05-20T15:13:09.626Z,26.63
2023-05-20T15:15:43.591Z,26.56
2023-05-20T15:18:16.815Z,26.48
2023-05-20T15:20:49.751Z,26.42
2023-05-20T15:23:22.503Z,26.33
2023-05-20T15:25:55.279Z,26.26
2023-05-20T15:28:28.160Z,26.24
2023-05-20T15:31:02.180Z,26.21
2023-05-20T15:33:35.312Z,26.19
2023-05-20T15:36:08.453Z,26.15
2023-05-20T15:38:41.195Z,26.14
2023-05-20T15:41:14.587Z,26.12
2023-05-20T15:43:47.436Z,26.08
2023-05-20T15:46:24.045Z,26.05
2023-05-20T15:48:58.147Z,26.01
2023-05-20T15:51:30.927Z,25.98
2023-05-20T15:54:03.651Z,25.93
2023-05-20T15:56:36.368Z,25.88
2023-05-20T15:59:09.049Z,25.81
2023-05-20T16:01:43.074Z,25.73
2023-05-20T16:04:15.912Z,25.62
2023-05-20T16:06:48.819Z,25.52
2023-05-20T16:09:22.123Z,25.44
2023-05-20T16:11:56.117Z,25.37
2023-05-20T16:14:28.867Z,25.30
2023-05-20T16:17:02.913Z,25.28
2023-05-20T16:19:35.676Z,25.25
2023-05-20T16:22:09.336Z,25.18
2023-05-20T16:24:42.292Z,25.14
2023-05-20T16:27:15.016Z,25.10
2023-05-20T16:29:47.703Z,25.04
2023-05-20T16:32:22.477Z,24.97
2023-05-20T16:34:55.702Z,24.92
2023-05-20T16:37:28.399Z,24.84
2023-05-20T16:40:01.157Z,24.76
2023-05-20T16:42:34.031Z,24.66
2023-05-20T16:45:07.253Z,24.57
2023-05-20T16:47:41.317Z,24.49
2023-05-20T16:50:14.278Z,24.40
2023-05-20T16:52:46.982Z,24.33
2023-05-20T16:55:19.645Z,24.25
2023-05-20T16:57:52.349Z,24.19
2023-05-20T17:00:25.041Z,24.13
2023-05-20T17:02:59.142Z,24.07
2023-05-20T17:05:31.869Z,24.01
2023-05-20T17:08:04.645Z,23.96
2023-05-20T17:10:37.394Z,23.89
2023-05-20T17:13:10.075Z,23.85
2023-05-20T17:15:42.742Z,23.81
2023-05-20T17:18:16.911Z,23.74
2023-05-20T17:20:49.709Z,23.68
2023-05-20T17:23:22.432Z,23.63
2023-05-20T17:25:55.149Z,23.58
2023-05-20T17:28:27.907Z,23.52
2023-05-20T17:31:00.611Z,23.48
2023-05-20T17:33:34.833Z,23.43
2023-05-20T17:36:07.763Z,23.36
2023-05-20T17:38:40.494Z,23.32
2023-05-20T17:41:13.278Z,23.29
2023-05-20T17:43:46.300Z,23.24
2023-05-20T17:46:19.068Z,23.19
2023-05-20T17:48:53.216Z,23.16
2023-05-20T17:51:25.964Z,23.11
2023-05-20T17:53:59.045Z,23.07
2023-05-20T17:56:32.425Z,23.01
2023-05-20T17:59:05.194Z,22.96
2023-05-20T18:01:37.936Z,22.91
2023-05-20T18:04:12.072Z,22.85
2023-05-20T18:06:44.811Z,22.81
2023-05-20T18:09:17.576Z,22.77
2023-05-20T18:11:50.325Z,22.73
2023-05-20T18:14:23.335Z,22.69
2023-05-20T18:16:57.375Z,22.65
2023-05-20T18:19:31.629Z,22.60
2023-05-20T18:22:07.206Z,22.55
2023-05-20T18:24:40.010Z,22.49
2023-05-20T18:27:12.676Z,22.43
2023-05-20T18:29:45.557Z,22.39
2023-05-20T18:32:18.449Z,22.32
2023-05-20T18:34:52.508Z,22.28
2023-05-20T18:37:25.205Z,22.24
2023-05-20T18:39:58.913Z,22.18
2023-05-20T18:42:31.707Z,22.11
2023-05-20T18:45:04.615Z,22.04
2023-05-20T18:47:37.480Z,21.99
2023-05-20T18:50:12.177Z,21.94
2023-05-20T18:52:44.863Z,21.88
2023-05-20T18:55:17.702Z,21.85
2023-05-20T18:57:52.543Z,21.79
2023-05-20T19:00:25.332Z,21.75
2023-05-20T19:02:58.688Z,21.70
2023-05-20T19:05:33.039Z,21.63
2023-05-20T19:08:06.397Z,21.60
2023-05-20T19:10:39.098Z,21.56
2023-05-20T19:13:11.795Z,21.54
2023-05-20T19:15:44.442Z,21.50
2023-05-20T19:18:17.167Z,21.48
2023-05-20T19:20:52.421Z,21.44
2023-05-20T19:23:25.220Z,21.40
2023-05-20T19:25:57.859Z,21.34
2023-05-20T19:28:30.508Z,21.32
2023-05-20T19:31:03.300Z,21.27
2023-05-20T19:33:36.025Z,21.23
2023-05-20T19:36:10.177Z,21.19
2023-05-20T19:38:43.191Z,21.16
2023-05-20T19:41:16.261Z,21.10
2023-05-20T19:43:48.987Z,21.04
2023-05-20T19:46:21.796Z,21.00
2023-05-20T19:48:54.555Z,20.95
2023-05-20T19:51:28.880Z,20.91
2023-05-20T19:54:01.565Z,20.87
2023-05-20T19:56:34.258Z,20.81
2023-05-20T19:59:07.009Z,20.78
2023-05-20T20:01:39.779Z,20.74
2023-05-20T20:04:13.327Z,20.70
2023-05-20T20:06:48.097Z,20.67
2023-05-20T20:09:21.045Z,20.64
2023-05-20T20:11:54.105Z,20.60
2023-05-20T20:14:26.784Z,20.56
2023-05-20T20:16:59.829Z,20.52
2023-05-20T20:19:32.638Z,20.48
2023-05-20T20:22:06.824Z,20.45
2023-05-20T20:24:39.522Z,20.40
2023-05-20T20:27:13.330Z,20.39
2023-05-20T20:29:46.146Z,20.37
2023-05-20T20:32:18.870Z,20.32
2023-05-20T20:34:52.362Z,20.29
2023-05-20T20:37:27.354Z,20.26
2023-05-20T20:40:03.692Z,20.22
2023-05-20T20:42:37.425Z,20.19
2023-05-20T20:45:12.306Z,20.14
2023-05-20T20:47:45.401Z,20.10
2023-05-20T20:50:18.201Z,20.06
2023-05-20T20:52:57.526Z,20.02
2023-05-20T20:55:30.544Z,19.98
2023-05-20T20:58:05.082Z,19.94
2023-05-20T21:00:40.061Z,19.91
2023-05-20T21:03:13.054Z,19.87
2023-05-20T21:05:45.937Z,19.83
2023-05-20T21:08:22.181Z,19.80
2023-05-20T21:10:59.133Z,19.76
2023-05-20T21:13:31.876Z,19.74
2023-05-20T21:16:04.725Z,19.71
2023-05-20T21:18:37.377Z,19.68
2023-05-20T21:21:12.372Z,19.64
2023-05-20T21:23:46.505Z,19.59
2023-05-20T21:26:21.233Z,19.54
2023-05-20T21:28:54.020Z,19.52
2023-05-20T21:31:26.776Z,19.46
2023-05-20T21:33:59.867Z,19.41
2023-05-20T21:36:32.988Z,19.35
2023-05-20T21:39:07.096Z,19.33
2023-05-20T21:41:40.320Z,19.30
2023-05-20T21:44:12.982Z,19.28
2023-05-20T21:46:45.741Z,19.24
2023-05-20T21:49:18.512Z,19.20
2023-05-20T21:51:51.165Z,19.17
2023-05-20T21:54:25.195Z,19.14
2023-05-20T21:56:57.872Z,19.09
2023-05-20T21:59:30.593Z,19.06
2023-05-20T22:02:03.454Z,19.03
2023-05-20T22:04:37.320Z,18.99
2023-05-20T22:07:10.137Z,18.96
2023-05-20T22:09:44.136Z,18.91
2023-05-20T22:12:16.764Z,18.85
2023-05-20T22:14:49.404Z,18.82
2023-05-20T22:17:23.849Z,18.79
2023-05-20T22:19:56.583Z,18.78
2023-05-20T22:22:30.812Z,18.74
2023-05-20T22:25:04.996Z,18.69
2023-05-20T22:27:38.711Z,18.67
2023-05-20T22:30:12.264Z,18.62
2023-05-20T22:32:45.095Z,18.57
2023-05-20T22:35:17.867Z,18.53
2023-05-20T22:37:50.608Z,18.50
2023-05-20T22:40:24.745Z,18.46
2023-05-20T22:42:57.381Z,18.42
2023-05-20T22:45:30.117Z,18.38
2023-05-20T22:48:03.776Z,18.34
2023-05-20T22:50:36.633Z,18.30
2023-05-20T22:53:12.900Z,18.25
2023-05-20T22:55:47.034Z,18.19
2023-05-20T22:58:19.702Z,18.15
2023-05-20T23:00:52.716Z,18.12
2023-05-20T23:03:25.424Z,18.07
2023-05-20T23:05:58.124Z,18.03
2023-05-20T23:08:31.017Z,17.99
2023-05-20T23:11:05.103Z,17.95
2023-05-20T23:13:37.889Z,17.90
2023-05-20T23:16:10.728Z,17.84
2023-05-20T23:18:43.509Z,17.77
2023-05-20T23:21:17.107Z,17.72
2023-05-20T23:23:49.802Z,17.66
2023-05-20T23:26:24.133Z,17.59
2023-05-20T23:28:56.859Z,17.55
2023-05-20T23:31:30.066Z,17.50
2023-05-20T23:34:03.925Z,17.46
2023-05-20T23:36:37.286Z,17.41
2023-05-20T23:39:10.368Z,17.39
2023-05-20T23:41:44.471Z,17.35
2023-05-20T23:44:17.178Z,17.31
2023-05-20T23:46:51.097Z,17.28
2023-05-20T23:49:27.109Z,17.25
2023-05-20T23:52:00.005Z,17.22
2023-05-20T23:54:34.238Z,17.21
2023-05-20T23:57:11.639Z,17.16
2023-05-20T23:59:44.337Z,17.10
